BRA562 ENSD-ENKB
Flight info
| Callsign | BRA562 |
|---|---|
| Flight time | 0h 23m |
| Altitude | 17000 |
| Route | STG DCT IBLAD DCT UPGEN DCT LUGEK |
| Aircraft | B736/M-SDE2E3FGHIRWXY/LB1 |
Departure
| Time | 2026-04-23 14:07 |
|---|---|
| Airport | Sandane Airport, Anda (ENSD) |
Arrival
| Time | 2026-04-23 14:30 |
|---|---|
| Airport | Kristiansund Airport, Kvernberget (ENKB) |
| Time | Latitude | Longitude | Altitude | Speed | Heading |
|---|---|---|---|---|---|
| 2026-04-23 13:57 | 61.82936 | 6.10749 | 198 ft | 0 kts | 268° |
| 2026-04-23 14:04 | 61.82940 | 6.10710 | 197 ft | 2 kts | 295° |
| 2026-04-23 14:04 | 61.82981 | 6.10694 | 184 ft | 14 kts | 354° |
| 2026-04-23 14:04 | 61.83005 | 6.10552 | 189 ft | 11 kts | 265° |
| 2026-04-23 14:04 | 61.82999 | 6.10362 | 186 ft | 15 kts | 266° |
| 2026-04-23 14:05 | 61.82988 | 6.10156 | 188 ft | 13 kts | 265° |
| 2026-04-23 14:05 | 61.82979 | 6.09980 | 184 ft | 10 kts | 265° |
| 2026-04-23 14:05 | 61.82993 | 6.09963 | 195 ft | 1 kts | 71° |
| 2026-04-23 14:05 | 61.82989 | 6.09983 | 185 ft | 3 kts | 108° |
| 2026-04-23 14:06 | 61.82988 | 6.10019 | 186 ft | 0 kts | 85° |
| 2026-04-23 14:07 | 61.83254 | 6.12815 | 1063 ft | 150 kts | 67° |
| 2026-04-23 14:07 | 61.83586 | 6.14797 | 2835 ft | 130 kts | 67° |
| 2026-04-23 14:08 | 61.83925 | 6.16505 | 4297 ft | 128 kts | 63° |
| 2026-04-23 14:08 | 61.84357 | 6.18350 | 5245 ft | 159 kts | 60° |
| 2026-04-23 14:08 | 61.84680 | 6.20908 | 5886 ft | 211 kts | 79° |
| 2026-04-23 14:08 | 61.84828 | 6.24168 | 6771 ft | 238 kts | 75° |
| 2026-04-23 14:09 | 61.85149 | 6.27771 | 7426 ft | 256 kts | 72° |
| 2026-04-23 14:09 | 61.85542 | 6.31556 | 8025 ft | 274 kts | 71° |
| 2026-04-23 14:09 | 61.86064 | 6.35348 | 8704 ft | 281 kts | 57° |
| 2026-04-23 14:09 | 61.87195 | 6.38153 | 9739 ft | 271 kts | 31° |
| 2026-04-23 14:10 | 61.88754 | 6.40261 | 10885 ft | 272 kts | 25° |
| 2026-04-23 14:10 | 61.90473 | 6.42331 | 11438 ft | 299 kts | 24° |
| 2026-04-23 14:10 | 61.92392 | 6.44611 | 11683 ft | 332 kts | 25° |
| 2026-04-23 14:10 | 61.94479 | 6.47137 | 12366 ft | 347 kts | 26° |
| 2026-04-23 14:11 | 61.96569 | 6.49707 | 13240 ft | 355 kts | 26° |
| 2026-04-23 14:11 | 61.98721 | 6.52375 | 14138 ft | 361 kts | 26° |
| 2026-04-23 14:11 | 62.00927 | 6.55117 | 14885 ft | 369 kts | 27° |
| 2026-04-23 14:11 | 62.03180 | 6.57796 | 15676 ft | 374 kts | 25° |
| 2026-04-23 14:12 | 62.05499 | 6.60389 | 16435 ft | 380 kts | 24° |
| 2026-04-23 14:12 | 62.07874 | 6.62982 | 17115 ft | 384 kts | 24° |
| 2026-04-23 14:12 | 62.10269 | 6.65609 | 17424 ft | 392 kts | 24° |
| 2026-04-23 14:12 | 62.12753 | 6.68355 | 17445 ft | 412 kts | 25° |
| 2026-04-23 14:13 | 62.15354 | 6.71246 | 17428 ft | 424 kts | 25° |
| 2026-04-23 14:13 | 62.17977 | 6.74194 | 17405 ft | 426 kts | 25° |
| 2026-04-23 14:13 | 62.20565 | 6.77121 | 17402 ft | 427 kts | 25° |
| 2026-04-23 14:13 | 62.23237 | 6.80142 | 17395 ft | 430 kts | 25° |
| 2026-04-23 14:14 | 62.25851 | 6.83100 | 17378 ft | 430 kts | 25° |
| 2026-04-23 14:14 | 62.28494 | 6.86099 | 17361 ft | 428 kts | 25° |
| 2026-04-23 14:14 | 62.31118 | 6.89085 | 16703 ft | 419 kts | 25° |
| 2026-04-23 14:14 | 62.33672 | 6.91997 | 15931 ft | 410 kts | 25° |
| 2026-04-23 14:15 | 62.36144 | 6.94821 | 15103 ft | 403 kts | 25° |
| 2026-04-23 14:15 | 62.38622 | 6.97656 | 14249 ft | 391 kts | 24° |
| 2026-04-23 14:15 | 62.40965 | 7.00347 | 13352 ft | 371 kts | 24° |
| 2026-04-23 14:15 | 62.43168 | 7.02876 | 12585 ft | 355 kts | 23° |
| 2026-04-23 14:16 | 62.45339 | 7.05363 | 11859 ft | 354 kts | 23° |
| 2026-04-23 14:16 | 62.47522 | 7.07868 | 11188 ft | 357 kts | 23° |
| 2026-04-23 14:16 | 62.49674 | 7.10346 | 11055 ft | 344 kts | 23° |
| 2026-04-23 14:16 | 62.51766 | 7.12769 | 10897 ft | 328 kts | 23° |
| 2026-04-23 14:17 | 62.53724 | 7.15044 | 10767 ft | 313 kts | 22° |
| 2026-04-23 14:17 | 62.55579 | 7.17199 | 10642 ft | 300 kts | 22° |
| 2026-04-23 14:17 | 62.57380 | 7.19292 | 10515 ft | 288 kts | 23° |
| 2026-04-23 14:17 | 62.58901 | 7.22054 | 10339 ft | 289 kts | 46° |
| 2026-04-23 14:18 | 62.59822 | 7.26015 | 10001 ft | 291 kts | 62° |
| 2026-04-23 14:18 | 62.60496 | 7.30113 | 9431 ft | 292 kts | 64° |
| 2026-04-23 14:18 | 62.61201 | 7.34250 | 8878 ft | 289 kts | 60° |
| 2026-04-23 14:18 | 62.62086 | 7.38125 | 8344 ft | 284 kts | 53° |
| 2026-04-23 14:19 | 62.63330 | 7.41275 | 7829 ft | 270 kts | 28° |
| 2026-04-23 14:19 | 62.65006 | 7.42765 | 7233 ft | 255 kts | 0° |
| 2026-04-23 14:19 | 62.66714 | 7.42339 | 6707 ft | 244 kts | 338° |
| 2026-04-23 14:19 | 62.68314 | 7.41127 | 6162 ft | 243 kts | 335° |
| 2026-04-23 14:20 | 62.69924 | 7.39983 | 5591 ft | 244 kts | 338° |
| 2026-04-23 14:20 | 62.71550 | 7.38932 | 5147 ft | 242 kts | 338° |
| 2026-04-23 14:20 | 62.73122 | 7.37943 | 4958 ft | 233 kts | 339° |
| 2026-04-23 14:20 | 62.74657 | 7.37005 | 4879 ft | 224 kts | 339° |
| 2026-04-23 14:21 | 62.76126 | 7.36130 | 4780 ft | 216 kts | 339° |
| 2026-04-23 14:21 | 62.77566 | 7.35290 | 4519 ft | 214 kts | 338° |
| 2026-04-23 14:21 | 62.79018 | 7.34460 | 4255 ft | 217 kts | 339° |
| 2026-04-23 14:21 | 62.80425 | 7.33597 | 4279 ft | 202 kts | 336° |
| 2026-04-23 14:22 | 62.81811 | 7.32748 | 3916 ft | 226 kts | 338° |
| 2026-04-23 14:22 | 62.83441 | 7.31926 | 4210 ft | 237 kts | 339° |
| 2026-04-23 14:22 | 62.84969 | 7.31157 | 4934 ft | 217 kts | 342° |
| 2026-04-23 14:22 | 62.86462 | 7.30553 | 5281 ft | 224 kts | 344° |
| 2026-04-23 14:23 | 62.88103 | 7.29958 | 4490 ft | 259 kts | 346° |
| 2026-04-23 14:23 | 62.89990 | 7.29706 | 3168 ft | 275 kts | 353° |
| 2026-04-23 14:23 | 62.91928 | 7.30017 | 2515 ft | 273 kts | 8° |
| 2026-04-23 14:23 | 62.93711 | 7.31108 | 2148 ft | 263 kts | 11° |
| 2026-04-23 14:24 | 62.95406 | 7.32430 | 1801 ft | 253 kts | 17° |
| 2026-04-23 14:24 | 62.96935 | 7.34063 | 1527 ft | 233 kts | 20° |
| 2026-04-23 14:24 | 62.98339 | 7.35595 | 1258 ft | 218 kts | 19° |
| 2026-04-23 14:24 | 62.99635 | 7.37098 | 1042 ft | 202 kts | 25° |
| 2026-04-23 14:25 | 63.00740 | 7.38690 | 826 ft | 180 kts | 29° |
| 2026-04-23 14:25 | 63.01678 | 7.40272 | 661 ft | 165 kts | 34° |
| 2026-04-23 14:25 | 63.02213 | 7.41394 | 813 ft | 149 kts | 39° |
| 2026-04-23 14:25 | 63.03159 | 7.43718 | 816 ft | 158 kts | 46° |
| 2026-04-23 14:26 | 63.03749 | 7.45772 | 790 ft | 156 kts | 59° |
| 2026-04-23 14:26 | 63.04292 | 7.47991 | 670 ft | 169 kts | 60° |
| 2026-04-23 14:26 | 63.04634 | 7.49489 | 694 ft | 163 kts | 62° |
| 2026-04-23 14:26 | 63.05019 | 7.51824 | 636 ft | 156 kts | 75° |
| 2026-04-23 14:27 | 63.05423 | 7.54051 | 591 ft | 153 kts | 60° |
| 2026-04-23 14:27 | 63.05955 | 7.56150 | 600 ft | 158 kts | 60° |
| 2026-04-23 14:27 | 63.06482 | 7.58305 | 526 ft | 162 kts | 58° |
| 2026-04-23 14:27 | 63.06985 | 7.60540 | 410 ft | 165 kts | 68° |
| 2026-04-23 14:28 | 63.07399 | 7.62968 | 573 ft | 175 kts | 64° |
| 2026-04-23 14:28 | 63.07949 | 7.65302 | 698 ft | 169 kts | 61° |
| 2026-04-23 14:28 | 63.08597 | 7.67510 | 479 ft | 164 kts | 51° |
| 2026-04-23 14:28 | 63.09185 | 7.69617 | 330 ft | 162 kts | 68° |
| 2026-04-23 14:29 | 63.09588 | 7.72123 | 379 ft | 177 kts | 72° |
| 2026-04-23 14:29 | 63.09953 | 7.74516 | 586 ft | 157 kts | 71° |
| 2026-04-23 14:29 | 63.10349 | 7.76814 | 375 ft | 165 kts | 73° |
| 2026-04-23 14:29 | 63.10724 | 7.79226 | 335 ft | 165 kts | 73° |
| 2026-04-23 14:30 | 63.11057 | 7.81593 | 217 ft | 151 kts | 72° |
| 2026-04-23 14:30 | 63.11360 | 7.83572 | 217 ft | 115 kts | 71° |
| 2026-04-23 14:30 | 63.11513 | 7.84666 | 196 ft | 37 kts | 77° |
| 2026-04-23 14:30 | 63.11555 | 7.84864 | 195 ft | 2 kts | 360° |
| 2026-04-23 14:31 | 63.11551 | 7.84815 | 194 ft | 8 kts | 244° |
| 2026-04-23 14:31 | 63.11502 | 7.84545 | 197 ft | 33 kts | 252° |
| 2026-04-23 14:31 | 63.11415 | 7.83988 | 212 ft | 32 kts | 253° |
| 2026-04-23 14:31 | 63.11347 | 7.83517 | 214 ft | 37 kts | 251° |
| 2026-04-23 14:32 | 63.11321 | 7.83261 | 214 ft | 3 kts | 286° |
| 2026-04-23 14:32 | 63.11329 | 7.83239 | 214 ft | 1 kts | 319° |
| 2026-04-23 14:32 | 63.11355 | 7.83189 | 210 ft | 12 kts | 322° |
| 2026-04-23 14:32 | 63.11372 | 7.83033 | 219 ft | 6 kts | 270° |
| 2026-04-23 14:33 | 63.11379 | 7.82989 | 215 ft | 2 kts | 275° |
| 2026-04-23 14:33 | 63.11356 | 7.82844 | 214 ft | 10 kts | 246° |
| 2026-04-23 14:33 | 63.11325 | 7.82690 | 215 ft | 9 kts | 246° |
| 2026-04-23 14:33 | 63.11308 | 7.82577 | 210 ft | 6 kts | 265° |
| 2026-04-23 14:34 | 63.11318 | 7.82552 | 219 ft | 3 kts | 333° |
| 2026-04-23 14:34 | 63.11339 | 7.82537 | 210 ft | 3 kts | 342° |
| 2026-04-23 14:34 | 63.11342 | 7.82535 | 210 ft | 0 kts | 341° |